sensor_id;sensor_type;location;lat;lon;timestamp;pressure;altitude;pressure_sealevel;temperature;humidity
48517;BME280;34310;51.904;4.256;2023-02-10T00:01:37;103666.13;;;15.90;54.44
48517;BME280;34310;51.904;4.256;2023-02-10T00:04:05;103671.16;;;15.89;54.51
48517;BME280;34310;51.904;4.256;2023-02-10T00:06:33;103677.16;;;15.88;54.47
48517;BME280;34310;51.904;4.256;2023-02-10T00:09:02;103676.25;;;15.87;54.30
48517;BME280;34310;51.904;4.256;2023-02-10T00:11:30;103675.19;;;15.85;54.34
48517;BME280;34310;51.904;4.256;2023-02-10T00:14:17;103669.81;;;15.84;54.34
48517;BME280;34310;51.904;4.256;2023-02-10T00:16:48;103668.91;;;15.83;54.16
48517;BME280;34310;51.904;4.256;2023-02-10T00:19:15;103663.56;;;15.82;54.16
48517;BME280;34310;51.904;4.256;2023-02-10T00:21:42;103662.50;;;15.79;54.20
48517;BME280;34310;51.904;4.256;2023-02-10T00:24:10;103662.34;;;15.78;54.24
48517;BME280;34310;51.904;4.256;2023-02-10T00:26:37;103653.63;;;15.77;54.28
48517;BME280;34310;51.904;4.256;2023-02-10T00:29:05;103654.25;;;15.75;54.17
48517;BME280;34310;51.904;4.256;2023-02-10T00:31:32;103636.78;;;15.74;54.20
48517;BME280;34310;51.904;4.256;2023-02-10T00:33:59;103644.59;;;15.74;54.16
48517;BME280;34310;51.904;4.256;2023-02-10T00:36:27;103640.94;;;15.72;54.29
48517;BME280;34310;51.904;4.256;2023-02-10T00:38:54;103639.88;;;15.70;54.14
48517;BME280;34310;51.904;4.256;2023-02-10T00:41:23;103640.66;;;15.69;54.20
48517;BME280;34310;51.904;4.256;2023-02-10T00:43:51;103643.13;;;15.67;54.22
48517;BME280;34310;51.904;4.256;2023-02-10T00:46:20;103639.59;;;15.67;54.23
48517;BME280;34310;51.904;4.256;2023-02-10T00:48:48;103636.84;;;15.65;54.19
48517;BME280;34310;51.904;4.256;2023-02-10T00:51:17;103628.91;;;15.64;54.09
48517;BME280;34310;51.904;4.256;2023-02-10T00:53:44;103633.03;;;15.62;54.26
48517;BME280;34310;51.904;4.256;2023-02-10T00:56:12;103644.19;;;15.61;54.30
48517;BME280;34310;51.904;4.256;2023-02-10T00:58:39;103644.19;;;15.61;54.22
48517;BME280;34310;51.904;4.256;2023-02-10T01:01:06;103640.53;;;15.59;54.34
48517;BME280;34310;51.904;4.256;2023-02-10T01:03:34;103649.09;;;15.58;54.21
48517;BME280;34310;51.904;4.256;2023-02-10T01:06:02;103644.66;;;15.57;54.16
48517;BME280;34310;51.904;4.256;2023-02-10T01:08:29;103650.63;;;15.56;54.30
48517;BME280;34310;51.904;4.256;2023-02-10T01:11:06;103652.16;;;15.54;54.21
48517;BME280;34310;51.904;4.256;2023-02-10T01:13:35;103651.25;;;15.53;54.27
48517;BME280;34310;51.904;4.256;2023-02-10T01:16:08;103653.72;;;15.52;54.36
48517;BME280;34310;51.904;4.256;2023-02-10T01:18:38;103660.59;;;15.51;54.36
48517;BME280;34310;51.904;4.256;2023-02-10T01:21:10;103661.38;;;15.50;54.31
48517;BME280;34310;51.904;4.256;2023-02-10T01:23:38;103653.28;;;15.47;54.32
48517;BME280;34310;51.904;4.256;2023-02-10T01:26:07;103654.97;;;15.46;54.52
48517;BME280;34310;51.904;4.256;2023-02-10T01:28:39;103652.06;;;15.43;54.20
48517;BME280;34310;51.904;4.256;2023-02-10T01:31:16;103668.59;;;15.44;54.46
48517;BME280;34310;51.904;4.256;2023-02-10T01:33:44;103671.97;;;15.43;54.52
48517;BME280;34310;51.904;4.256;2023-02-10T01:36:14;103670.78;;;15.39;54.35
48517;BME280;34310;51.904;4.256;2023-02-10T01:38:42;103664.81;;;15.40;54.62
48517;BME280;34310;51.904;4.256;2023-02-10T01:41:09;103667.25;;;15.39;54.45
48517;BME280;34310;51.904;4.256;2023-02-10T01:46:47;103668.66;;;15.35;54.33
48517;BME280;34310;51.904;4.256;2023-02-10T01:49:18;103675.41;;;15.33;54.50
48517;BME280;34310;51.904;4.256;2023-02-10T01:51:57;103685.50;;;15.30;54.44
48517;BME280;34310;51.904;4.256;2023-02-10T01:54:31;103691.59;;;15.31;54.52
48517;BME280;34310;51.904;4.256;2023-02-10T01:57:00;103690.09;;;15.24;54.81
48517;BME280;34310;51.904;4.256;2023-02-10T01:59:32;103677.84;;;15.23;55.00
48517;BME280;34310;51.904;4.256;2023-02-10T02:02:00;103682.91;;;15.22;55.11
48517;BME280;34310;51.904;4.256;2023-02-10T02:04:47;103689.66;;;15.19;55.31
48517;BME280;34310;51.904;4.256;2023-02-10T02:07:16;103687.97;;;15.20;55.49
48517;BME280;34310;51.904;4.256;2023-02-10T02:09:44;103680.16;;;15.20;55.64
48517;BME280;34310;51.904;4.256;2023-02-10T02:15:33;103677.56;;;15.20;56.25
48517;BME280;34310;51.904;4.256;2023-02-10T02:18:30;103668.84;;;15.19;56.15
48517;BME280;34310;51.904;4.256;2023-02-10T02:23:52;103670.53;;;15.19;56.17
48517;BME280;34310;51.904;4.256;2023-02-10T02:26:43;103670.53;;;15.19;56.26
48517;BME280;34310;51.904;4.256;2023-02-10T02:29:39;103666.09;;;15.18;56.33
48517;BME280;34310;51.904;4.256;2023-02-10T02:35:07;103665.94;;;15.16;56.55
48517;BME280;34310;51.904;4.256;2023-02-10T02:37:39;103672.06;;;15.17;56.49
48517;BME280;34310;51.904;4.256;2023-02-10T02:40:08;103672.84;;;15.16;56.60
48517;BME280;34310;51.904;4.256;2023-02-10T02:42:36;103678.97;;;15.16;56.59
48517;BME280;34310;51.904;4.256;2023-02-10T02:48:41;103692.59;;;15.14;56.60
48517;BME280;34310;51.904;4.256;2023-02-10T02:56:49;103700.41;;;15.14;56.50
48517;BME280;34310;51.904;4.256;2023-02-10T02:59:29;103700.41;;;15.14;56.48
48517;BME280;34310;51.904;4.256;2023-02-10T03:02:01;103708.97;;;15.13;56.39
48517;BME280;34310;51.904;4.256;2023-02-10T03:04:34;103709.75;;;15.12;56.56
48517;BME280;34310;51.904;4.256;2023-02-10T03:07:02;103709.75;;;15.12;56.49
48517;BME280;34310;51.904;4.256;2023-02-10T03:09:30;103711.44;;;15.11;56.43
48517;BME280;34310;51.904;4.256;2023-02-10T03:11:57;103710.50;;;15.11;56.35
48517;BME280;34310;51.904;4.256;2023-02-10T03:14:25;103711.44;;;15.11;56.33
48517;BME280;34310;51.904;4.256;2023-02-10T03:16:53;103719.22;;;15.11;56.47
48517;BME280;34310;51.904;4.256;2023-02-10T03:19:20;103712.97;;;15.09;56.46
48517;BME280;34310;51.904;4.256;2023-02-10T03:21:47;103718.03;;;15.08;56.48
48517;BME280;34310;51.904;4.256;2023-02-10T03:24:15;103715.56;;;15.09;56.51
48517;BME280;34310;51.904;4.256;2023-02-10T03:26:43;103714.34;;;15.06;56.39
48517;BME280;34310;51.904;4.256;2023-02-10T03:29:12;103712.34;;;15.03;56.43
48517;BME280;34310;51.904;4.256;2023-02-10T03:31:40;103714.00;;;15.03;56.59
48517;BME280;34310;51.904;4.256;2023-02-10T03:34:08;103712.34;;;15.03;56.39
48517;BME280;34310;51.904;4.256;2023-02-10T03:36:35;103706.06;;;15.01;56.42
48517;BME280;34310;51.904;4.256;2023-02-10T03:39:04;103706.97;;;15.02;56.28
48517;BME280;34310;51.904;4.256;2023-02-10T03:41:31;103709.59;;;15.02;56.40
48517;BME280;34310;51.904;4.256;2023-02-10T03:43:58;103712.94;;;15.01;56.32
48517;BME280;34310;51.904;4.256;2023-02-10T03:46:26;103706.84;;;15.00;56.19
48517;BME280;34310;51.904;4.256;2023-02-10T03:48:53;103705.91;;;15.00;56.18
48517;BME280;34310;51.904;4.256;2023-02-10T03:51:21;103700.56;;;14.98;56.19
48517;BME280;34310;51.904;4.256;2023-02-10T03:53:48;103704.06;;;14.99;56.20
48517;BME280;34310;51.904;4.256;2023-02-10T03:56:16;103698.88;;;14.99;56.11
48517;BME280;34310;51.904;4.256;2023-02-10T03:58:43;103697.97;;;14.98;56.01
48517;BME280;34310;51.904;4.256;2023-02-10T04:01:13;103703.00;;;14.97;56.01
48517;BME280;34310;51.904;4.256;2023-02-10T04:03:41;103702.09;;;14.96;56.24
48517;BME280;34310;51.904;4.256;2023-02-10T04:06:08;103708.06;;;14.95;56.08
48517;BME280;34310;51.904;4.256;2023-02-10T04:08:38;103704.56;;;14.95;56.07
48517;BME280;34310;51.904;4.256;2023-02-10T04:11:05;103705.31;;;14.94;56.08
48517;BME280;34310;51.904;4.256;2023-02-10T04:13:35;103706.09;;;14.93;55.87
48517;BME280;34310;51.904;4.256;2023-02-10T04:16:04;103711.13;;;14.91;55.94
48517;BME280;34310;51.904;4.256;2023-02-10T04:18:32;103715.44;;;14.91;56.03
48517;BME280;34310;51.904;4.256;2023-02-10T04:21:00;103719.72;;;14.90;56.03
48517;BME280;34310;51.904;4.256;2023-02-10T04:23:29;103723.06;;;14.89;56.11
48517;BME280;34310;51.904;4.256;2023-02-10T04:25:57;103718.50;;;14.86;56.07
48517;BME280;34310;51.904;4.256;2023-02-10T04:28:25;103721.09;;;14.86;56.07
48517;BME280;34310;51.904;4.256;2023-02-10T04:30:55;103721.09;;;14.86;56.01
48517;BME280;34310;51.904;4.256;2023-02-10T04:33:23;103721.88;;;14.85;55.93
48517;BME280;34310;51.904;4.256;2023-02-10T04:35:53;103720.03;;;14.84;56.06
48517;BME280;34310;51.904;4.256;2023-02-10T04:38:21;103730.28;;;14.83;56.36
48517;BME280;34310;51.904;4.256;2023-02-10T04:40:49;103725.22;;;14.84;56.32
48517;BME280;34310;51.904;4.256;2023-02-10T04:43:16;103720.03;;;14.84;56.34
48517;BME280;34310;51.904;4.256;2023-02-10T04:45:44;103711.59;;;14.87;56.53
48517;BME280;34310;51.904;4.256;2023-02-10T04:48:11;103712.81;;;14.91;56.75
48517;BME280;34310;51.904;4.256;2023-02-10T04:50:41;103715.72;;;14.94;56.47
48517;BME280;34310;51.904;4.256;2023-02-10T04:53:09;103714.97;;;14.95;56.95
48517;BME280;34310;51.904;4.256;2023-02-10T04:55:36;103713.41;;;14.97;56.80
48517;BME280;34310;51.904;4.256;2023-02-10T04:58:04;103717.09;;;14.99;56.87
48517;BME280;34310;51.904;4.256;2023-02-10T05:00:31;103718.91;;;15.00;56.86
48517;BME280;34310;51.904;4.256;2023-02-10T05:02:59;103718.16;;;15.01;56.85
48517;BME280;34310;51.904;4.256;2023-02-10T05:05:26;103716.47;;;15.01;56.86
48517;BME280;34310;51.904;4.256;2023-02-10T05:07:54;103714.78;;;15.02;56.86
48517;BME280;34310;51.904;4.256;2023-02-10T05:10:22;103707.91;;;15.02;56.98
48517;BME280;34310;51.904;4.256;2023-02-10T05:12:49;103712.34;;;15.03;56.99
48517;BME280;34310;51.904;4.256;2023-02-10T05:15:17;103717.72;;;15.05;56.95
48517;BME280;34310;51.904;4.256;2023-02-10T05:17:44;103715.88;;;15.04;56.78
48517;BME280;34310;51.904;4.256;2023-02-10T05:20:11;103714.94;;;15.03;56.79
48517;BME280;34310;51.904;4.256;2023-02-10T05:22:39;103705.47;;;15.04;56.84
48517;BME280;34310;51.904;4.256;2023-02-10T05:25:07;103703.63;;;15.03;56.59
48517;BME280;34310;51.904;4.256;2023-02-10T05:27:35;103696.72;;;15.03;56.67
48517;BME280;34310;51.904;4.256;2023-02-10T05:30:04;103699.31;;;15.03;56.76
48517;BME280;34310;51.904;4.256;2023-02-10T05:32:33;103705.47;;;15.04;56.74
48517;BME280;34310;51.904;4.256;2023-02-10T05:35:01;103708.09;;;15.04;56.72
48517;BME280;34310;51.904;4.256;2023-02-10T05:37:28;103710.69;;;15.04;56.46
48517;BME280;34310;51.904;4.256;2023-02-10T05:39:55;103695.81;;;15.03;56.72
48517;BME280;34310;51.904;4.256;2023-02-10T05:42:23;103699.31;;;15.03;56.60
48517;BME280;34310;51.904;4.256;2023-02-10T05:44:50;103681.88;;;15.02;56.60
48517;BME280;34310;51.904;4.256;2023-02-10T05:47:17;103687.09;;;15.02;56.43
48517;BME280;34310;51.904;4.256;2023-02-10T05:49:45;103687.09;;;15.02;56.46
48517;BME280;34310;51.904;4.256;2023-02-10T05:52:12;103682.66;;;15.01;56.41
48517;BME280;34310;51.904;4.256;2023-02-10T05:54:39;103679.13;;;15.01;56.29
48517;BME280;34310;51.904;4.256;2023-02-10T05:57:07;103682.50;;;15.00;56.44
48517;BME280;34310;51.904;4.256;2023-02-10T05:59:35;103690.31;;;15.00;56.53
48517;BME280;34310;51.904;4.256;2023-02-10T06:02:02;103690.16;;;14.98;56.34
48517;BME280;34310;51.904;4.256;2023-02-10T06:04:30;103686.50;;;14.96;56.55
48517;BME280;34310;51.904;4.256;2023-02-10T06:06:57;103695.81;;;14.94;56.40
48517;BME280;34310;51.904;4.256;2023-02-10T06:09:24;103708.22;;;14.97;56.45
48517;BME280;34310;51.904;4.256;2023-02-10T06:11:53;103712.34;;;14.95;56.43
48517;BME280;34310;51.904;4.256;2023-02-10T06:14:21;103713.13;;;14.94;56.51
48517;BME280;34310;51.904;4.256;2023-02-10T06:16:48;103712.06;;;14.92;56.48
48517;BME280;34310;51.904;4.256;2023-02-10T06:19:16;103713.75;;;14.91;56.38
48517;BME280;34310;51.904;4.256;2023-02-10T06:21:46;103713.59;;;14.90;56.43
48517;BME280;34310;51.904;4.256;2023-02-10T06:24:14;103717.88;;;14.89;56.36
48517;BME280;34310;51.904;4.256;2023-02-10T06:26:41;103726.44;;;14.88;56.48
48517;BME280;34310;51.904;4.256;2023-02-10T06:29:09;103724.63;;;14.87;56.50
48517;BME280;34310;51.904;4.256;2023-02-10T06:31:36;103728.91;;;14.86;56.46
48517;BME280;34310;51.904;4.256;2023-02-10T06:34:04;103730.72;;;14.87;56.36
48517;BME280;34310;51.904;4.256;2023-02-10T06:36:32;103733.03;;;14.84;56.24
48517;BME280;34310;51.904;4.256;2023-02-10T06:38:59;103743.28;;;14.83;56.34
48517;BME280;34310;51.904;4.256;2023-02-10T06:41:27;103751.84;;;14.82;56.33
48517;BME280;34310;51.904;4.256;2023-02-10T06:43:54;103761.34;;;14.81;56.35
48517;BME280;34310;51.904;4.256;2023-02-10T06:46:22;103757.81;;;14.81;56.26
48517;BME280;34310;51.904;4.256;2023-02-10T06:48:49;103758.59;;;14.80;56.25
48517;BME280;34310;51.904;4.256;2023-02-10T06:51:17;103755.84;;;14.78;56.23
48517;BME280;34310;51.904;4.256;2023-02-10T06:53:44;103745.44;;;14.78;56.15
48517;BME280;34310;51.904;4.256;2023-02-10T06:56:13;103732.28;;;14.77;56.21
48517;BME280;34310;51.904;4.256;2023-02-10T06:58:40;103737.31;;;14.75;56.29
48517;BME280;34310;51.904;4.256;2023-02-10T07:01:13;103733.19;;;14.77;56.17
48517;BME280;34310;51.904;4.256;2023-02-10T07:03:44;103729.69;;;14.77;56.38
48517;BME280;34310;51.904;4.256;2023-02-10T07:06:11;103722.19;;;14.80;56.52
48517;BME280;34310;51.904;4.256;2023-02-10T07:08:38;103721.72;;;14.84;56.27
48517;BME280;34310;51.904;4.256;2023-02-10T07:11:06;103727.97;;;14.86;56.57
48517;BME280;34310;51.904;4.256;2023-02-10T07:13:33;103722.16;;;14.88;56.86
48517;BME280;34310;51.904;4.256;2023-02-10T07:16:00;103736.22;;;14.91;57.07
48517;BME280;34310;51.904;4.256;2023-02-10T07:18:28;103733.78;;;14.92;57.02
48517;BME280;34310;51.904;4.256;2023-02-10T07:20:57;103740.06;;;14.94;56.90
48517;BME280;34310;51.904;4.256;2023-02-10T07:23:24;103748.78;;;14.95;57.05
48517;BME280;34310;51.904;4.256;2023-02-10T07:26:03;103748.47;;;15.00;57.07
48517;BME280;34310;51.904;4.256;2023-02-10T07:28:32;103754.91;;;15.04;57.14
48517;BME280;34310;51.904;4.256;2023-02-10T07:30:59;103767.59;;;15.09;57.15
48517;BME280;34310;51.904;4.256;2023-02-10T07:33:27;103763.63;;;15.13;57.38
48517;BME280;34310;51.904;4.256;2023-02-10T07:35:59;103773.88;;;15.20;57.58
48517;BME280;34310;51.904;4.256;2023-02-10T07:38:27;103773.38;;;15.24;57.53
48517;BME280;34310;51.904;4.256;2023-02-10T07:40:55;103768.94;;;15.32;57.81
48517;BME280;34310;51.904;4.256;2023-02-10T07:43:22;103766.03;;;15.37;57.81
48517;BME280;34310;51.904;4.256;2023-02-10T07:45:49;103763.28;;;15.36;57.51
48517;BME280;34310;51.904;4.256;2023-02-10T07:48:20;103762.38;;;15.35;57.21
48517;BME280;34310;51.904;4.256;2023-02-10T07:50:47;103758.38;;;15.39;57.40
48517;BME280;34310;51.904;4.256;2023-02-10T07:53:15;103755.16;;;15.41;57.52
48517;BME280;34310;51.904;4.256;2023-02-10T07:55:42;103766.78;;;15.45;57.67
48517;BME280;34310;51.904;4.256;2023-02-10T07:58:10;103765.09;;;15.45;57.41
48517;BME280;34310;51.904;4.256;2023-02-10T08:00:37;103777.34;;;15.46;57.50
48517;BME280;34310;51.904;4.256;2023-02-10T08:03:05;103776.56;;;15.47;57.22
48517;BME280;34310;51.904;4.256;2023-02-10T08:05:34;103783.00;;;15.51;57.57
48517;BME280;34310;51.904;4.256;2023-02-10T08:08:02;103782.38;;;15.54;57.43
48517;BME280;34310;51.904;4.256;2023-02-10T08:10:29;103785.28;;;15.57;57.48
48517;BME280;34310;51.904;4.256;2023-02-10T08:12:57;103778.56;;;15.59;57.57
48517;BME280;34310;51.904;4.256;2023-02-10T08:15:24;103786.69;;;15.62;57.58
48517;BME280;34310;51.904;4.256;2023-02-10T08:17:52;103779.94;;;15.64;57.43
48517;BME280;34310;51.904;4.256;2023-02-10T08:20:19;103781.94;;;15.66;57.44
48517;BME280;34310;51.904;4.256;2023-02-10T08:22:46;103776.88;;;15.68;57.26
48517;BME280;34310;51.904;4.256;2023-02-10T08:25:14;103773.78;;;15.72;57.17
48517;BME280;34310;51.904;4.256;2023-02-10T08:27:41;103779.16;;;15.73;57.24
48517;BME280;34310;51.904;4.256;2023-02-10T08:30:09;103782.81;;;15.75;57.19
48517;BME280;34310;51.904;4.256;2023-02-10T08:32:37;103772.53;;;15.77;56.94
48517;BME280;34310;51.904;4.256;2023-02-10T08:35:05;103773.59;;;15.79;57.15
48517;BME280;34310;51.904;4.256;2023-02-10T08:37:32;103784.31;;;15.82;57.36
48517;BME280;34310;51.904;4.256;2023-02-10T08:39:59;103787.97;;;15.84;57.25
48517;BME280;34310;51.904;4.256;2023-02-10T08:42:27;103786.44;;;15.86;56.95
48517;BME280;34310;51.904;4.256;2023-02-10T08:44:55;103782.28;;;15.88;56.89
48517;BME280;34310;51.904;4.256;2023-02-10T08:47:22;103791.03;;;15.89;56.97
48517;BME280;34310;51.904;4.256;2023-02-10T08:49:49;103786.91;;;15.91;56.68
48517;BME280;34310;51.904;4.256;2023-02-10T08:52:17;103783.69;;;15.93;56.83
48517;BME280;34310;51.904;4.256;2023-02-10T08:54:44;103787.34;;;15.95;56.57
48517;BME280;34310;51.904;4.256;2023-02-10T08:57:11;103787.63;;;15.98;56.66
48517;BME280;34310;51.904;4.256;2023-02-10T08:59:39;103781.94;;;16.02;56.98
48517;BME280;34310;51.904;4.256;2023-02-10T09:02:06;103787.28;;;16.04;56.83
48517;BME280;34310;51.904;4.256;2023-02-10T09:04:34;103784.84;;;16.05;56.50
48517;BME280;34310;51.904;4.256;2023-02-10T09:07:01;103782.38;;;16.07;56.62
48517;BME280;34310;51.904;4.256;2023-02-10T09:09:29;103788.78;;;16.10;56.84
48517;BME280;34310;51.904;4.256;2023-02-10T09:11:56;103781.13;;;16.12;56.65
48517;BME280;34310;51.904;4.256;2023-02-10T09:14:23;103792.75;;;16.16;56.73
48517;BME280;34310;51.904;4.256;2023-02-10T09:16:51;103799.03;;;16.18;56.79
48517;BME280;34310;51.904;4.256;2023-02-10T09:19:18;103786.16;;;16.19;56.91
48517;BME280;34310;51.904;4.256;2023-02-10T09:21:47;103800.41;;;16.23;56.55
48517;BME280;34310;51.904;4.256;2023-02-10T09:24:15;103798.84;;;16.25;56.48
48517;BME280;34310;51.904;4.256;2023-02-10T09:26:43;103792.09;;;16.27;56.71
48517;BME280;34310;51.904;4.256;2023-02-10T09:29:11;103805.56;;;16.31;56.76
48517;BME280;34310;51.904;4.256;2023-02-10T09:31:39;103801.41;;;16.33;56.71
48517;BME280;34310;51.904;4.256;2023-02-10T09:34:07;103802.47;;;16.35;56.83
48517;BME280;34310;51.904;4.256;2023-02-10T09:36:34;103809.66;;;16.38;56.73
48517;BME280;34310;51.904;4.256;2023-02-10T09:39:01;103809.94;;;16.41;56.59
48517;BME280;34310;51.904;4.256;2023-02-10T09:44:21;103799.03;;;16.45;56.78
48517;BME280;34310;51.904;4.256;2023-02-10T09:50:17;103804.06;;;16.52;56.52
48517;BME280;34310;51.904;4.256;2023-02-10T09:55:59;103796.66;;;16.57;56.70
48517;BME280;34310;51.904;4.256;2023-02-10T09:58:51;103791.72;;;16.60;56.45
48517;BME280;34310;51.904;4.256;2023-02-10T10:04:07;103797.38;;;16.64;56.53
48517;BME280;34310;51.904;4.256;2023-02-10T10:06:41;103802.91;;;16.67;56.62
48517;BME280;34310;51.904;4.256;2023-02-10T10:14:42;103803.63;;;16.75;56.36
48517;BME280;34310;51.904;4.256;2023-02-10T10:26:19;103785.59;;;16.87;56.30
48517;BME280;34310;51.904;4.256;2023-02-10T10:30:02;103781.56;;;16.90;56.05
48517;BME280;34310;51.904;4.256;2023-02-10T10:35:02;103773.22;;;16.94;56.17
48517;BME280;34310;51.904;4.256;2023-02-10T10:37:30;103774.44;;;16.98;55.93
48517;BME280;34310;51.904;4.256;2023-02-10T10:40:03;103765.03;;;17.00;56.08
48517;BME280;34310;51.904;4.256;2023-02-10T10:42:45;103771.44;;;17.03;56.22
48517;BME280;34310;51.904;4.256;2023-02-10T10:45:35;103757.78;;;17.06;55.98
48517;BME280;34310;51.904;4.256;2023-02-10T10:48:17;103765.91;;;17.09;56.00
48517;BME280;34310;51.904;4.256;2023-02-10T10:50:45;103763.44;;;17.11;55.93
48517;BME280;34310;51.904;4.256;2023-02-10T10:53:16;103768.00;;;17.13;56.00
48517;BME280;34310;51.904;4.256;2023-02-10T10:55:52;103767.50;;;17.17;56.09
48517;BME280;34310;51.904;4.256;2023-02-10T10:58:29;103768.56;;;17.19;55.84
48517;BME280;34310;51.904;4.256;2023-02-10T11:00:59;103774.84;;;17.21;55.91
48517;BME280;34310;51.904;4.256;2023-02-10T11:03:29;103769.88;;;17.24;56.09
48517;BME280;34310;51.904;4.256;2023-02-10T11:06:20;103755.25;;;17.26;55.85
48517;BME280;34310;51.904;4.256;2023-02-10T11:08:56;103746.91;;;17.30;56.00
48517;BME280;34310;51.904;4.256;2023-02-10T11:11:39;103753.19;;;17.32;55.87
48517;BME280;34310;51.904;4.256;2023-02-10T11:14:15;103743.81;;;17.34;56.10
48517;BME280;34310;51.904;4.256;2023-02-10T11:16:48;103747.50;;;17.37;56.03
48517;BME280;34310;51.904;4.256;2023-02-10T11:19:25;103737.19;;;17.38;55.92
48517;BME280;34310;51.904;4.256;2023-02-10T11:21:55;103731.31;;;17.41;56.08
48517;BME280;34310;51.904;4.256;2023-02-10T11:24:31;103747.25;;;17.44;56.02
48517;BME280;34310;51.904;4.256;2023-02-10T11:29:28;103753.66;;;17.47;56.02
48517;BME280;34310;51.904;4.256;2023-02-10T11:31:57;103740.75;;;17.49;55.83
48517;BME280;34310;51.904;4.256;2023-02-10T11:34:31;103743.50;;;17.50;55.81
48517;BME280;34310;51.904;4.256;2023-02-10T11:37:08;103739.31;;;17.52;56.00
48517;BME280;34310;51.904;4.256;2023-02-10T11:39:40;103735.13;;;17.54;55.87
48517;BME280;34310;51.904;4.256;2023-02-10T11:42:26;103740.50;;;17.56;55.75
48517;BME280;34310;51.904;4.256;2023-02-10T11:44:58;103743.38;;;17.59;55.83
48517;BME280;34310;51.904;4.256;2023-02-10T11:47:29;103739.06;;;17.59;55.96
48517;BME280;34310;51.904;4.256;2023-02-10T11:49:57;103737.50;;;17.61;55.70
48517;BME280;34310;51.904;4.256;2023-02-10T11:52:27;103727.19;;;17.63;55.61
48517;BME280;34310;51.904;4.256;2023-02-10T11:54:58;103720.44;;;17.65;55.52
48517;BME280;34310;51.904;4.256;2023-02-10T11:57:37;103717.94;;;17.67;55.61
48517;BME280;34310;51.904;4.256;2023-02-10T12:00:44;103718.13;;;17.68;55.68
48517;BME280;34310;51.904;4.256;2023-02-10T12:03:33;103726.09;;;17.70;55.40
48517;BME280;34310;51.904;4.256;2023-02-10T12:06:25;103713.16;;;17.71;55.27
48517;BME280;34310;51.904;4.256;2023-02-10T12:12:14;103702.97;;;17.74;55.20
48517;BME280;34310;51.904;4.256;2023-02-10T12:31:48;103700.88;;;17.80;55.35
48517;BME280;34310;51.904;4.256;2023-02-10T12:34:33;103709.78;;;17.82;55.26
48517;BME280;34310;51.904;4.256;2023-02-10T12:37:25;103713.31;;;17.83;55.09
48517;BME280;34310;51.904;4.256;2023-02-10T12:43:13;103697.88;;;17.86;55.22
48517;BME280;34310;51.904;4.256;2023-02-10T12:49:10;103705.06;;;17.88;55.02
48517;BME280;34310;51.904;4.256;2023-02-10T12:51:51;103720.09;;;17.91;55.26
48517;BME280;34310;51.904;4.256;2023-02-10T13:00:15;103707.44;;;17.95;55.07
48517;BME280;34310;51.904;4.256;2023-02-10T13:02:57;103700.53;;;17.96;55.35
48517;BME280;34310;51.904;4.256;2023-02-10T13:05:32;103700.53;;;17.96;55.25
48517;BME280;34310;51.904;4.256;2023-02-10T13:08:02;103691.13;;;17.98;55.49
48517;BME280;34310;51.904;4.256;2023-02-10T13:10:40;103690.19;;;17.98;55.26
48517;BME280;34310;51.904;4.256;2023-02-10T13:13:27;103685.22;;;18.01;55.27
48517;BME280;34310;51.904;4.256;2023-02-10T13:16:17;103672.16;;;18.01;55.04
48517;BME280;34310;51.904;4.256;2023-02-10T13:24:21;103668.09;;;18.04;55.11
48517;BME280;34310;51.904;4.256;2023-02-10T13:32:50;103657.00;;;18.07;55.01
48517;BME280;34310;51.904;4.256;2023-02-10T13:35:23;103653.59;;;18.08;54.75
48517;BME280;34310;51.904;4.256;2023-02-10T13:37:56;103652.69;;;18.07;54.63
48517;BME280;34310;51.904;4.256;2023-02-10T13:42:58;103663.25;;;18.09;54.68
48517;BME280;34310;51.904;4.256;2023-02-10T13:45:31;103658.03;;;18.09;54.62
48517;BME280;34310;51.904;4.256;2023-02-10T13:48:05;103657.13;;;18.08;54.65
48517;BME280;34310;51.904;4.256;2023-02-10T13:50:52;103651.09;;;18.09;54.49
48517;BME280;34310;51.904;4.256;2023-02-10T13:56:12;103654.63;;;18.10;54.52
48517;BME280;34310;51.904;4.256;2023-02-10T14:04:05;103631.88;;;18.09;54.49
48517;BME280;34310;51.904;4.256;2023-02-10T14:06:39;103638.94;;;18.10;54.62
48517;BME280;34310;51.904;4.256;2023-02-10T14:11:59;103625.88;;;18.10;54.31
48517;BME280;34310;51.904;4.256;2023-02-10T14:14:35;103629.28;;;18.09;54.09
48517;BME280;34310;51.904;4.256;2023-02-10T14:19:46;103642.34;;;18.09;54.10
48517;BME280;34310;51.904;4.256;2023-02-10T14:22:31;103630.19;;;18.09;54.09
48517;BME280;34310;51.904;4.256;2023-02-10T14:25:00;103633.72;;;18.10;53.88
48517;BME280;34310;51.904;4.256;2023-02-10T14:27:30;103637.91;;;18.08;53.95
48517;BME280;34310;51.904;4.256;2023-02-10T14:30:20;103629.94;;;18.06;53.90
48517;BME280;34310;51.904;4.256;2023-02-10T14:32:49;103626.41;;;18.06;53.79
48517;BME280;34310;51.904;4.256;2023-02-10T14:35:21;103613.19;;;18.04;53.90
48517;BME280;34310;51.904;4.256;2023-02-10T14:37:58;103609.69;;;18.04;53.90
48517;BME280;34310;51.904;4.256;2023-02-10T14:40:27;103606.94;;;18.02;53.98
48517;BME280;34310;51.904;4.256;2023-02-10T14:42:57;103607.84;;;18.03;53.94
48517;BME280;34310;51.904;4.256;2023-02-10T14:45:27;103611.25;;;18.02;53.84
48517;BME280;34310;51.904;4.256;2023-02-10T14:47:57;103619.88;;;18.01;53.85
48517;BME280;34310;51.904;4.256;2023-02-10T14:50:32;103613.72;;;18.00;53.98
48517;BME280;34310;51.904;4.256;2023-02-10T14:53:02;103617.13;;;17.99;53.71
48517;BME280;34310;51.904;4.256;2023-02-10T14:55:33;103619.63;;;17.98;53.73
48517;BME280;34310;51.904;4.256;2023-02-10T14:58:14;103613.47;;;17.97;53.76
48517;BME280;34310;51.904;4.256;2023-02-10T15:00:56;103605.50;;;17.95;53.81
48517;BME280;34310;51.904;4.256;2023-02-10T15:03:25;103607.06;;;17.93;53.88